Stillwater, OK

6:22 PM CDT on July 29, 2014 (GMT -0500)
Stillwater, East Side (KOKSTILL4) Elev 935 ft | 36.12 °N, 97.04 °W | Change Station

Current weather conditions updated 9 seconds ago

Partly Cloudy
Partly Cloudy
88.3 °F
Feels Like 92 °F
N
3.1
Wind Variable Wind from SE
Gusts 4.6 mph

Tomorrow is forecast to be Much Cooler than today. Cloudy, periods of rain.

Today
High -- | Low -- °F
--% Chance of Precip.
Yesterday
High -- | Low -- °F
Precip. -- in
6:33 AM 8:35 PM
Waxing Crescent, 8% visible
Pressure 30.03 in
Visibility 10.0 miles
Clouds Few 7000 ft
Heat Index 92 °F
Dew Point 68 °F
Humidity 51%
Rainfall 0.00 in
Snow Depth Not available.
UV 1.2 out of 12
Pollen 5.60 out of 12
Air Quality Not available.
Flu Activity Not available.
METAR KSWO 292253Z AUTO 17006KT 10SM FEW070 31/18 A3006 RMK AO2 SLP168 T03060178 TSNO

More Conditions Fewer Conditions

Pressure 30.03 in
Visibility 10.0 miles
Clouds Few 7000 ft
Heat Index 92 °F
Dew Point 68 °F
Humidity 51%
Rainfall 0.00 in
Snow Depth Not available.
UV 1.2 out of 12
Pollen 5.60 out of 12
Air Quality Not available.
Flu Activity Not available.
METAR KSWO 292253Z AUTO 17006KT 10SM FEW070 31/18 A3006 RMK AO2 SLP168 T03060178 TSNO

More Conditions Fewer Conditions

10-Day Weather Forecast

Almanac

Astronomy

Jul. 29, 2014 Rise Set
Actual Time 6:33 AM CDT 8:35 PM CDT
Civil Twilight 6:04 AM CDT 9:04 PM CDT
Nautical Twilight 5:29 AM CDT 9:39 PM CDT
Astronomical Twilight 4:52 AM CDT 10:16 PM CDT
Moon 9:04 AM CDT 9:56 PM CDT
Length of Visible Light 14h 59m
Length of Day
14h 02m
Tomorrow will be 1m 39s shorter.
Waxing Crescent, 8% of the Moon is Illuminated
Today
Waxing Crescent
Aug 3
First Quarter
Aug 10
Full
Aug 17
Last Quarter
Aug 25
New

Today's Extremes

State Highs State Lows

Community

WunderPhotos

Upload Photos

1,738,911 photos uploaded!

Nearby

Snow Depth

Station Depth Elevation
No new snow has been reported.

Earthquake Activity

City Distance Mag. Time & Date
Helena, Oklahoma 74 miles 3.3 11:56 PM CDT
2014-07-24
Guthrie, Oklahoma 32 miles 2.7 5:27 AM CDT
2014-07-24
Langston, Oklahoma 20 miles 3.2 9:03 AM CDT
2014-07-23
Langston, Oklahoma 19 miles 3.3 9:02 PM CDT
2014-07-22
Minimum magnitude displayed is 2.5.

Coastal Water Temperatures

Place Temperature
No Stations Reporting

Nearby Weather Stations

Station Location Temp. Heat Index Dew Point Humidity Wind Precip. Elev Updated Type
Stillwater, East Side, Stillwater, OK 88.3 °F 92 °F 68 °F 51% SE  at  3.1 mph 0.00 in / hr 935 ft 6:21 PM CDT Rapid Fire
West of Stillwater, Stillwater, OK 91.0 °F 91 °F 60 °F 36% SW  at  5.8 mph 0.00 in / hr 1004 ft 6:21 PM CDT Normal
Western Heights, Yale, OK 89.0 °F 89 °F 61 °F 39% WSW  at  5.0 mph 0.00 in / hr 886 ft 6:20 PM CDT Normal
Near Antelope Creek, Guthrie, OK 84.7 °F 87 °F 67 °F 55% West  at  0.0 mph 0.00 in / hr 1109 ft 6:22 PM CDT Rapid Fire
NE of town, Guthrie, OK 85.0 °F 87 °F 65 °F 52% SW  at  1.0 mph 0.00 in / hr 1115 ft 6:22 PM CDT Rapid Fire

Show More Stations Show Fewer Stations